South Enola, Pennsylvania
Current Conditions -  °F | °C
As of 4:56 PM on Tuesday 21 Oct 2014 (Local Time) from KCXY Reporting Station
Overcast Overcast  
Wind Chill: 61°   Ceiling: 3900
Heat Index: 61°   Visibility: 10mi
Dew Point: 48°   Wind: 5mph
Humidity: 62%   Direction: 300°WNW
Pressure: 29.83"   Gusts: NA
Location:  40.2947°N, 76.9833°W
Report Text: KCXY 212056Z 30004KT 10SM BKN039 BKN070 OVC095 16/09 A2983 RMK AO2 SLP104 T01610089 55002
Loading
Personal Weather Stations






























Interactive Weather Map
Tropical Storm Tracking
New forecast layout! Learn more

10-Day Weather Forecast

Advertisements
Track Severe Weather on mobile